Latest Weather Observations for Lajamanu

IDD60801

Issued at 11:31 pm CST Sunday 24 September 2017 (issued every 30 minutes, with the page automatically refreshed every 10 minutes)

About weather observations | Map of weather stations | Latest weather observations for NT | Other Formats
Station Details ID: 014829 Name: LAJAMANU AIRPORT Lat: -18.33 Lon: 130.64 Height: 315.6 m
Data from the previous 72 hours. | See also: Recent months at Lajamanu
Date/Time
CST
Temp
°C
App
Temp
°C
Dew
Point
°C
Rel
Hum
%
Delta-T
°C
Wind Press
QNH
hPa
Press
MSL
hPa
Rain since
9am
mm
Dir  Spd
km/h
Gust
km/h
Spd
kts
Gust
kts
24/11:30pm 27.2 23.0 3.7 22 11.9 N 15 17 8 9 1010.3 1008.5 0.0
24/11:00pm 26.0 22.7 2.7 22 11.5 NNW 9 13 5 7 1010.2 1008.4 0.0
24/10:30pm 26.6 23.6 1.8 20 12.1 NW 7 11 4 6 1010.2 1008.4 0.0
24/10:00pm 27.0 24.0 2.1 20 12.3 W 7 9 4 5 1010.0 1008.2 0.0
24/09:30pm 26.9 23.9 2.1 20 12.2 WNW 7 9 4 5 1009.9 1008.1 0.0
24/09:00pm 26.9 24.1 2.1 20 12.2 WSW 6 11 3 6 1009.5 1007.7 0.0
24/08:30pm 27.7 24.9 2.0 19 12.7 WNW 6 7 3 4 1009.0 1007.3 0.0
24/08:00pm 27.6 24.7 1.2 18 12.9 WNW 6 9 3 5 1008.7 1006.9 0.0
24/07:30pm 28.6 24.8 -0.5 15 13.9 NNW 9 11 5 6 1008.4 1006.6 0.0
24/07:00pm 30.9 27.5 -0.7 13 15.2 NW 7 9 4 5 1008.1 1006.3 0.0
24/06:30pm 34.6 30.9 -0.1 11 17.3 NW 9 13 5 7 1007.9 1006.1 0.0
24/06:00pm 36.5 32.4 0.0 10 18.5 WNW 11 20 6 11 1007.7 1005.9 0.0
24/05:30pm 37.5 33.5 0.7 10 19.0 WNW 11 24 6 13 1007.5 1005.7 0.0
24/05:00pm 37.8 33.9 1.0 10 19.0 WNW 11 19 6 10 1007.4 1005.6 0.0
24/04:30pm 38.0 34.1 1.1 10 19.2 W 11 24 6 13 1007.5 1005.7 0.0
24/04:00pm 38.4 33.9 0.0 9 19.6 NW 13 26 7 14 1007.8 1006.0 0.0
24/03:30pm 38.7 34.5 1.6 10 19.5 WNW 13 24 7 13 1008.0 1006.2 0.0
24/03:00pm 38.6 34.8 1.6 10 19.4 NNW 11 28 6 15 1008.3 1006.5 0.0
24/02:30pm 37.9 33.2 1.0 10 19.1 NNW 15 20 8 11 1008.7 1006.9 0.0
24/02:00pm 37.6 34.2 2.1 11 18.7 WNW 9 24 5 13 1009.1 1007.4 0.0
24/01:30pm 36.9 32.1 0.3 10 18.7 WNW 15 22 8 12 1009.8 1008.0 0.0
24/01:00pm 37.4 33.8 0.7 10 18.9 ENE 9 15 5 8 1010.3 1008.5 0.0
24/12:30pm 36.2 33.6 1.1 11 18.0 N 4 9 2 5 1010.9 1009.1 0.0
24/12:00pm 35.4 31.8 0.5 11 17.7 SW 9 19 5 10 1011.5 1009.7 0.0
24/11:30am 35.9 31.6 0.9 11 17.9 WSW 13 20 7 11 1011.7 1010.0 0.0
24/11:00am 34.7 29.9 -0.1 11 17.4 SW 15 24 8 13 1012.1 1010.4 0.0
24/10:30am 34.1 29.0 0.7 12 16.8 SW 17 32 9 17 1012.4 1010.7 0.0
24/10:00am 33.4 28.9 2.3 14 16.0 WSW 15 20 8 11 1012.8 1011.0 0.0
24/09:30am 31.8 26.9 2.0 15 15.1 W 17 24 9 13 1012.8 1011.0 0.0
24/09:00am 29.8 26.2 2.9 18 13.7 W 11 19 6 10 1012.8 1011.0 -
24/08:30am 26.7 24.0 2.6 21 12.0 W 6 9 3 5 1012.5 1010.8 -
24/08:00am 23.6 20.7 2.4 25 10.3 WNW 7 11 4 6 1012.2 1010.5 -
24/07:30am 22.1 18.4 2.2 27 9.5 NW 11 13 6 7 1012.1 1010.4 -
24/07:00am 21.0 18.0 1.8 28 9.0 WNW 7 11 4 6 1011.8 1010.1 -
24/06:30am 22.0 18.6 1.6 26 9.6 WNW 9 11 5 6 1011.7 1010.0 -
24/06:00am 22.4 19.0 2.0 26 9.7 WNW 9 13 5 7 1011.5 1009.7 -
24/05:30am 21.6 17.6 2.8 29 9.0 WNW 13 17 7 9 1011.3 1009.5 -
24/05:00am 21.7 18.1 2.9 29 9.1 NNW 11 11 6 6 1010.8 1009.0 -
24/04:30am 22.4 19.1 2.5 27 9.6 NW 9 9 5 5 1010.6 1008.8 -
24/04:00am 22.6 19.9 2.7 27 9.6 WNW 6 9 3 5 1010.5 1008.7 -
24/03:30am 23.6 20.8 3.0 26 10.1 NW 7 9 4 5 1010.6 1008.8 -
24/03:00am 23.8 20.9 2.6 25 10.3 W 7 13 4 7 1010.9 1009.1 0.0
24/02:30am 24.2 21.4 2.9 25 10.5 W 7 9 4 5 1011.1 1009.3 -
24/02:00am 24.9 21.8 3.5 25 10.7 WSW 9 13 5 7 1011.3 1009.5 -
24/01:30am 24.3 21.4 4.6 28 10.0 WSW 9 15 5 8 1011.5 1009.7 -
24/01:00am 26.2 23.9 4.6 25 11.1 W 6 7 3 4 1011.4 1009.6 -
24/12:30am 26.0 24.0 4.5 25 11.0 W 4 7 2 4 1011.5 1009.7 -
24/12:00am 26.4 23.9 4.8 25 11.1 WSW 7 9 4 5 1011.7 1010.0 -
 
Date/Time
CST
Temp
°C
App
Temp
°C
Dew
Point
°C
Rel
Hum
%
Delta-T
°C
Wind Press
QNH
hPa
Press
MSL
hPa
Rain since
9am
mm
Dir  Spd
km/h
Gust
km/h
Spd
kts
Gust
kts
23/11:30pm 27.5 25.1 4.5 23 11.9 W 6 7 3 4 1011.7 1010.0 -
23/11:00pm 29.3 26.9 5.4 22 12.6 W 7 9 4 5 1011.8 1010.1 -
23/10:30pm 27.2 25.0 6.0 26 11.2 WSW 7 13 4 7 1012.0 1010.3 -
23/10:00pm 27.9 27.0 6.1 25 11.6 CALM 0 0 0 0 1011.7 1010.0 -
23/09:30pm 29.0 27.7 5.8 23 12.4 WNW 2 6 1 3 1011.5 1009.7 -
23/09:00pm 30.4 27.7 5.6 21 13.3 NNE 9 11 5 6 1011.2 1009.4 0.0
23/08:30pm 29.8 27.0 5.1 21 13.1 NW 9 13 5 7 1010.7 1008.9 -
23/08:00pm 32.2 29.3 4.9 18 14.6 N 9 11 5 6 1010.3 1008.5 -
23/07:30pm 33.2 30.0 4.9 17 15.2 N 11 13 6 7 1009.9 1008.1 -
23/07:00pm 33.5 30.5 4.2 16 15.6 N 9 11 5 6 1009.6 1007.8 -
23/06:30pm 35.5 32.5 3.9 14 16.9 NNW 9 13 5 7 1009.2 1007.5 -
23/06:00pm 37.0 34.4 4.0 13 17.8 NNW 7 13 4 7 1009.2 1007.5 -
23/05:30pm 37.6 34.1 3.4 12 18.4 NNW 11 19 6 10 1009.0 1007.3 -
23/05:00pm 37.8 33.9 3.5 12 18.4 N 13 24 7 13 1009.0 1007.3 -
23/04:30pm 38.4 34.6 4.0 12 18.7 NW 13 22 7 12 1009.0 1007.3 -
23/04:00pm 38.6 36.0 4.1 12 18.8 NW 7 15 4 8 1009.1 1007.4 -
23/03:30pm 38.3 34.5 3.9 12 18.7 NNW 13 20 7 11 1009.5 1007.7 -
23/03:00pm 38.1 33.1 3.8 12 18.6 N 19 26 10 14 1009.8 1008.0 -
23/02:30pm 38.1 33.1 3.8 12 18.6 NNW 19 26 10 14 1010.4 1008.6 -
23/02:00pm 38.2 34.8 3.8 12 18.6 S 11 26 6 14 1010.8 1009.0 -
23/01:30pm 37.9 34.4 3.6 12 18.5 WNW 11 17 6 9 1011.2 1009.4 -
23/01:00pm 37.2 33.1 4.2 13 17.9 NNW 15 30 8 16 1011.8 1010.1 -
23/12:30pm 37.4 33.5 5.4 14 17.7 NNW 15 24 8 13 1012.3 1010.6 -
23/12:00pm 36.2 32.0 5.5 15 16.9 NW 17 24 9 13 1012.9 1011.1 -
23/11:30am 35.4 32.5 6.6 17 16.0 NNW 11 17 6 9 1013.3 1011.5 -
23/11:00am 34.7 31.9 6.9 18 15.5 NNW 11 19 6 10 1013.7 1011.9 -
23/10:30am 34.8 30.9 7.0 18 15.5 NW 17 26 9 14 1014.1 1012.3 -
23/08:30am 28.6 25.6 7.8 27 11.4 WSW 13 19 7 10 1014.2 1012.4 0.0
23/08:00am 26.7 23.7 7.7 30 10.3 W 13 24 7 13 1013.8 1012.0 0.0
23/07:30am 26.0 23.1 8.0 32 9.8 N 13 17 7 9 1013.1 1011.3 0.0
23/07:00am 24.1 21.1 7.7 35 8.8 N 13 17 7 9 1012.9 1011.1 0.0
23/06:30am 23.1 20.1 7.6 37 8.2 NNW 13 13 7 7 1012.8 1011.0 0.0
23/06:00am 23.2 20.2 7.7 37 8.3 NNW 13 15 7 8 1012.4 1010.7 0.0
23/05:30am 23.2 20.5 7.3 36 8.4 NNW 11 17 6 9 1012.2 1010.5 0.0
23/05:00am 22.8 20.3 6.6 35 8.4 NNW 9 13 5 7 1011.9 1010.2 0.0
23/04:30am 23.0 20.1 6.7 35 8.5 NNW 11 15 6 8 1011.7 1010.0 0.0
23/04:00am 21.9 19.0 6.6 37 7.9 NNW 11 11 6 6 1011.6 1009.8 0.0
23/03:30am 21.4 19.1 5.7 36 8.0 WNW 7 7 4 4 1011.8 1010.1 0.0
23/03:00am 21.1 18.9 5.5 36 7.9 NW 6 7 3 4 1011.9 1010.2 0.0
23/02:30am 21.3 18.9 5.2 35 8.1 NW 7 7 4 4 1011.9 1010.2 0.0
23/02:00am 22.9 20.0 4.9 31 9.1 NNW 9 9 5 5 1012.1 1010.4 0.0
23/01:30am 24.3 21.2 5.6 30 9.6 NNW 11 13 6 7 1012.2 1010.5 0.0
23/01:00am 25.0 21.8 5.2 28 10.2 N 11 13 6 7 1012.1 1010.4 0.0
23/12:30am 24.5 21.3 5.3 29 9.9 NNW 11 11 6 6 1012.4 1010.7 0.0
23/12:00am 25.2 22.3 4.9 27 10.4 NW 9 11 5 6 1012.5 1010.8 0.0
 
Date/Time
CST
Temp
°C
App
Temp
°C
Dew
Point
°C
Rel
Hum
%
Delta-T
°C
Wind Press
QNH
hPa
Press
MSL
hPa
Rain since
9am
mm
Dir  Spd
km/h
Gust
km/h
Spd
kts
Gust
kts
22/11:30pm 28.2 24.6 5.1 23 12.1 N 13 19 7 10 1012.5 1010.8 0.0
22/11:00pm 29.7 25.9 5.7 22 12.8 NNE 15 20 8 11 1012.3 1010.6 0.0
22/10:30pm 30.2 26.7 5.5 21 13.2 NNE 13 19 7 10 1012.4 1010.7 0.0
22/10:00pm 30.1 26.4 4.7 20 13.3 NNE 13 17 7 9 1012.4 1010.7 0.0
22/09:30pm 30.5 26.4 4.3 19 13.7 NNE 15 19 8 10 1012.5 1010.8 0.0
22/09:00pm 30.6 26.9 4.4 19 13.7 NNE 13 17 7 9 1012.3 1010.6 0.0
22/08:30pm 31.4 27.5 3.4 17 14.5 NNE 13 17 7 9 1011.9 1010.2 0.0
22/08:00pm 31.2 27.1 2.4 16 14.7 NNE 13 17 7 9 1011.6 1009.8 0.0
22/07:30pm 31.6 27.4 1.8 15 15.1 NNE 13 15 7 8 1011.3 1009.5 0.0
22/07:00pm 31.6 28.0 0.9 14 15.3 NNE 9 11 5 6 1011.0 1009.2 0.0
22/06:30pm 33.8 30.4 1.6 13 16.4 N 9 11 5 6 1010.6 1008.8 0.0
22/06:00pm 35.7 31.7 0.7 11 17.8 N 11 15 6 8 1010.3 1008.5 0.0
22/05:30pm 36.4 32.5 1.2 11 18.1 NNE 11 17 6 9 1010.2 1008.4 0.0
22/05:00pm 36.8 32.8 0.2 10 18.6 N 11 15 6 8 1010.1 1008.3 0.0
22/04:30pm 37.3 32.6 0.6 10 18.8 NNE 15 20 8 11 1010.2 1008.4 0.0
22/04:00pm 37.7 34.5 0.9 10 19.0 E 7 15 4 8 1010.3 1008.5 0.0
22/03:30pm 37.6 33.3 0.8 10 19.0 N 13 20 7 11 1010.4 1008.6 0.0
22/03:00pm 38.0 33.9 -0.3 9 19.5 ENE 11 19 6 10 1010.7 1008.9 0.0
22/02:30pm 38.2 33.3 -0.2 9 19.6 SE 15 24 8 13 1011.1 1009.3 0.0
22/02:00pm 37.9 34.0 1.0 10 19.1 ESE 11 24 6 13 1011.5 1009.7 0.0
22/01:30pm 37.3 33.1 -0.9 9 19.1 NNW 11 20 6 11 1012.1 1010.4 0.0
22/01:00pm 36.7 32.1 -1.3 9 18.8 NE 13 24 7 13 1012.8 1011.0 0.0
22/12:30pm 36.8 32.6 1.5 11 18.3 WNW 13 20 7 11 1013.2 1011.4 0.0
22/12:00pm 35.8 30.7 3.1 13 17.3 N 19 28 10 15 1013.7 1011.9 0.0
22/11:30am 35.1 30.1 4.6 15 16.4 N 20 28 11 15 1014.2 1012.4 0.0
22/11:00am 34.5 29.8 5.9 17 15.7 N 20 32 11 17 1014.5 1012.7 0.0
22/10:30am 33.5 29.0 5.9 18 15.1 N 19 28 10 15 1014.7 1013.0 0.0
22/10:00am 32.1 27.5 6.3 20 14.1 NNW 20 28 11 15 1014.9 1013.2 0.0
22/09:30am 30.1 25.8 5.4 21 13.1 N 17 22 9 12 1015.0 1013.3 0.0
22/09:00am 28.2 24.8 3.8 21 12.5 NNE 11 17 6 9 1015.0 1013.3 0.0
22/08:58am 28.2 24.8 3.8 21 12.5 NNE 11 17 6 9 1015.0 1013.3 0.0
22/08:30am 23.2 21.5 2.1 25 10.1 CALM 0 4 0 2 1014.9 1013.2 0.0
22/08:00am 19.8 18.2 2.2 31 8.2 CALM 0 0 0 0 1014.7 1013.0 0.0
22/07:30am 18.1 16.4 1.6 33 7.5 CALM 0 0 0 0 1014.3 1012.5 0.0
22/07:00am 16.8 13.8 0.5 33 7.2 ENE 6 7 3 4 1014.1 1012.3 0.0
22/06:30am 16.8 13.8 0.9 34 7.1 WNW 6 7 3 4 1013.5 1011.7 0.0
22/06:00am 16.0 12.9 0.2 34 6.9 W 6 7 3 4 1013.3 1011.5 0.0
22/05:30am 17.1 13.9 0.7 33 7.3 W 7 7 4 4 1013.1 1011.3 0.0
22/05:00am 17.1 13.8 0.3 32 7.4 NW 7 9 4 5 1012.9 1011.1 0.0
22/04:30am 15.9 12.7 -0.3 33 7.0 W 6 7 3 4 1012.6 1010.9 0.0
22/04:00am 16.3 14.2 -0.8 31 7.3 CALM 0 0 0 0 1012.4 1010.7 0.0
22/03:30am 17.6 15.2 -0.6 29 7.9 WNW 2 6 1 3 1012.4 1010.7 0.0
22/03:00am 18.4 14.7 0.1 29 8.1 NNW 9 11 5 6 1012.1 1010.4 0.0
22/02:30am 17.5 14.1 -0.7 29 7.9 W 7 9 4 5 1012.1 1010.4 0.0
22/02:00am 18.9 15.6 -1.0 26 8.7 NW 6 7 3 4 1012.1 1010.4 0.0
22/01:30am 19.1 17.0 -0.8 26 8.7 CALM 0 0 0 0 1012.2 1010.5 0.0
22/01:00am 19.5 17.4 -0.5 26 8.9 CALM 0 0 0 0 1012.4 1010.7 0.0
22/12:30am 19.2 17.0 -1.3 25 8.9 CALM 0 0 0 0 1012.6 1010.9 0.0
22/12:00am 20.2 18.1 -1.0 24 9.4 CALM 0 0 0 0 1012.9 1011.1 0.0

Other Formats:

Comma delimited format used in spreadsheet applications
http://www.bom.gov.au/fwo/IDD60801/IDD60801.94231.axf

JavaScript Object Notation format (JSON) in row-major order
http://www.bom.gov.au/fwo/IDD60801/IDD60801.94231.json